createdAt,value
2022-10-25T00:01:22.541Z,24.36
2022-10-25T00:03:49.459Z,24.66
2022-10-25T00:06:16.459Z,22.54
2022-10-25T00:08:44.189Z,23.41
2022-10-25T00:11:21.075Z,23.46
2022-10-25T00:13:52.844Z,22.56
2022-10-25T00:16:22.762Z,23.92
2022-10-25T00:18:49.875Z,23.01
2022-10-25T00:21:16.591Z,23.48
2022-10-25T00:23:44.072Z,23.87
2022-10-25T00:26:12.499Z,21.89
2022-10-25T00:28:39.745Z,22.75
2022-10-25T00:31:11.538Z,23.04
2022-10-25T00:33:39.491Z,22.50
2022-10-25T00:36:17.915Z,23.34
2022-10-25T00:38:46.315Z,22.72
2022-10-25T00:41:15.392Z,22.72
2022-10-25T00:43:48.402Z,21.71
2022-10-25T00:46:18.009Z,24.08
2022-10-25T00:49:05.780Z,24.65
2022-10-25T00:51:59.136Z,26.49
2022-10-25T00:54:39.340Z,23.72
2022-10-25T00:57:14.681Z,25.47
2022-10-25T00:59:43.090Z,25.60
2022-10-25T01:02:09.862Z,26.89
2022-10-25T01:04:36.776Z,24.68
2022-10-25T01:07:03.951Z,25.05
2022-10-25T01:09:33.100Z,25.40
2022-10-25T01:12:00.295Z,26.94
2022-10-25T01:14:29.107Z,24.03
2022-10-25T01:16:59.489Z,24.02
2022-10-25T01:19:29.575Z,24.73
2022-10-25T01:22:19.702Z,26.09
2022-10-25T01:25:18.590Z,26.99
2022-10-25T01:28:06.765Z,24.37
2022-10-25T01:30:48.614Z,23.77
2022-10-25T01:33:31.766Z,23.78
2022-10-25T01:38:51.891Z,28.52
2022-10-25T01:41:42.393Z,26.80
2022-10-25T01:44:23.652Z,27.46
2022-10-25T01:47:11.297Z,28.94
2022-10-25T01:50:00.805Z,24.26
2022-10-25T01:52:28.503Z,23.06
2022-10-25T01:54:55.263Z,23.92
2022-10-25T01:57:52.788Z,25.89
2022-10-25T02:00:24.005Z,24.23
2022-10-25T02:03:08.838Z,23.09
2022-10-25T02:06:03.109Z,27.53
2022-10-25T02:08:41.885Z,28.30
2022-10-25T02:11:22.902Z,24.86
2022-10-25T02:13:58.802Z,26.42
2022-10-25T02:16:29.974Z,26.88
2022-10-25T02:19:03.890Z,24.21
2022-10-25T02:21:33.838Z,22.74
2022-10-25T02:24:05.228Z,23.60
2022-10-25T02:26:33.521Z,24.58
2022-10-25T02:29:02.087Z,25.01
2022-10-25T02:31:31.083Z,24.09
2022-10-25T02:33:58.750Z,24.91
2022-10-25T02:36:25.502Z,25.27
2022-10-25T02:38:54.135Z,25.74
2022-10-25T02:41:22.477Z,22.55
2022-10-25T02:43:49.971Z,22.80
2022-10-25T02:46:19.500Z,24.18
2022-10-25T02:48:47.305Z,25.25
2022-10-25T02:51:15.515Z,23.22
2022-10-25T02:53:42.646Z,24.41
2022-10-25T02:56:21.902Z,23.81
2022-10-25T02:58:50.652Z,23.98
2022-10-25T03:01:20.097Z,24.37
2022-10-25T03:03:47.934Z,25.56
2022-10-25T03:06:15.588Z,22.64
2022-10-25T03:08:44.427Z,22.92
2022-10-25T03:11:12.466Z,25.33
2022-10-25T03:13:39.214Z,24.75
2022-10-25T03:16:06.316Z,24.83
2022-10-25T03:18:33.082Z,23.16
2022-10-25T03:21:01.853Z,25.78
2022-10-25T03:23:30.382Z,24.70
2022-10-25T03:25:59.497Z,25.47
2022-10-25T03:28:30.676Z,26.42
2022-10-25T03:30:59.500Z,26.35
2022-10-25T03:33:26.856Z,24.15
2022-10-25T03:35:54.962Z,23.98
2022-10-25T03:38:21.960Z,24.39
2022-10-25T03:40:48.719Z,24.42
2022-10-25T03:43:16.651Z,24.87
2022-10-25T03:45:43.456Z,25.20
2022-10-25T03:48:11.274Z,26.48
2022-10-25T03:50:38.002Z,26.10
2022-10-25T03:53:05.440Z,23.59
2022-10-25T03:55:33.025Z,25.75
2022-10-25T03:58:01.008Z,23.96
2022-10-25T04:00:28.168Z,23.47
2022-10-25T04:03:02.559Z,23.12
2022-10-25T04:05:31.072Z,24.23
2022-10-25T04:07:58.907Z,25.47
2022-10-25T04:10:27.141Z,24.75
2022-10-25T04:12:55.022Z,25.86
2022-10-25T04:15:22.856Z,24.93
2022-10-25T04:17:53.428Z,25.01
2022-10-25T04:20:21.295Z,23.99
2022-10-25T04:22:57.635Z,26.95
2022-10-25T04:25:26.338Z,26.60
2022-10-25T04:27:53.061Z,25.95
2022-10-25T04:30:20.594Z,26.90
2022-10-25T04:32:47.588Z,27.82
2022-10-25T04:35:15.158Z,29.01
2022-10-25T04:37:41.864Z,27.96
2022-10-25T04:40:09.404Z,29.76
2022-10-25T04:42:36.172Z,27.02
2022-10-25T04:45:03.595Z,27.36
2022-10-25T04:47:32.596Z,26.92
2022-10-25T04:50:00.182Z,27.29
2022-10-25T04:52:29.135Z,25.04
2022-10-25T04:54:57.461Z,23.67
2022-10-25T04:57:25.394Z,23.46
2022-10-25T04:59:52.777Z,23.21
2022-10-25T05:02:19.771Z,23.68
2022-10-25T05:04:47.259Z,23.48
2022-10-25T05:07:14.049Z,23.19
2022-10-25T05:09:43.831Z,24.71
2022-10-25T05:12:13.321Z,23.71
2022-10-25T05:14:40.059Z,25.84
2022-10-25T05:17:06.781Z,23.69
2022-10-25T05:19:33.696Z,23.26
2022-10-25T05:22:00.919Z,24.50
2022-10-25T05:24:28.001Z,23.63
2022-10-25T05:26:54.715Z,23.22
2022-10-25T05:29:21.458Z,23.30
2022-10-25T05:31:48.444Z,22.87
2022-10-25T05:34:15.930Z,22.53
2022-10-25T05:36:42.632Z,24.46
2022-10-25T05:39:09.343Z,24.97
2022-10-25T05:41:37.288Z,25.56
2022-10-25T05:44:05.374Z,24.18
2022-10-25T05:46:32.615Z,23.29
2022-10-25T05:49:01.011Z,27.22
2022-10-25T05:51:35.230Z,24.36
2022-10-25T05:54:15.966Z,23.11
2022-10-25T05:56:43.348Z,22.74
2022-10-25T05:59:12.226Z,25.20
2022-10-25T06:01:44.380Z,23.07
2022-10-25T06:04:11.958Z,23.78
2022-10-25T06:06:40.178Z,22.90
2022-10-25T06:09:08.738Z,25.03
2022-10-25T06:11:35.673Z,23.85
2022-10-25T06:14:04.027Z,23.86
2022-10-25T06:16:31.217Z,24.57
2022-10-25T06:18:58.013Z,24.53
2022-10-25T06:21:27.859Z,25.20
2022-10-25T06:23:55.447Z,24.69
2022-10-25T06:26:27.833Z,23.95
2022-10-25T06:28:57.447Z,22.61
2022-10-25T06:31:24.870Z,24.25
2022-10-25T06:33:51.917Z,23.33
2022-10-25T06:36:21.257Z,23.03
2022-10-25T06:38:49.064Z,22.81
2022-10-25T06:41:19.403Z,23.80
2022-10-25T06:43:46.481Z,22.30
2022-10-25T06:46:25.002Z,22.21
2022-10-25T06:48:54.227Z,24.14
2022-10-25T06:51:22.168Z,24.78
2022-10-25T06:53:57.376Z,23.39
2022-10-25T06:56:25.169Z,25.69
2022-10-25T06:58:52.182Z,24.29
2022-10-25T07:01:20.581Z,24.55
2022-10-25T07:03:50.620Z,23.93
2022-10-25T07:06:27.208Z,23.29
2022-10-25T07:09:01.797Z,23.40
2022-10-25T07:11:33.547Z,23.09
2022-10-25T07:14:03.269Z,24.66
2022-10-25T07:16:29.977Z,24.28
2022-10-25T07:19:01.857Z,24.04
2022-10-25T07:21:29.922Z,24.86
2022-10-25T07:23:56.581Z,25.57
2022-10-25T07:26:27.230Z,24.57
2022-10-25T07:28:56.300Z,24.55
2022-10-25T07:31:26.315Z,23.47
2022-10-25T07:33:54.658Z,21.28
2022-10-25T07:36:21.435Z,21.61
2022-10-25T07:38:48.715Z,20.36
2022-10-25T07:41:16.945Z,20.43
2022-10-25T07:43:43.912Z,20.26
2022-10-25T07:46:10.791Z,22.10
2022-10-25T07:48:37.671Z,22.77
2022-10-25T07:51:06.527Z,20.90
2022-10-25T07:53:33.769Z,16.97
2022-10-25T07:56:00.543Z,17.96
2022-10-25T07:58:27.313Z,18.26
2022-10-25T08:01:00.416Z,23.25
2022-10-25T08:03:27.242Z,23.05
2022-10-25T08:05:54.008Z,17.30
2022-10-25T08:08:23.208Z,16.25
2022-10-25T08:10:50.322Z,17.12
2022-10-25T08:13:18.281Z,18.90
2022-10-25T08:15:55.216Z,20.83
2022-10-25T08:18:23.281Z,21.08
2022-10-25T08:21:06.736Z,23.53
2022-10-25T08:23:34.002Z,22.14
2022-10-25T08:26:03.889Z,22.02
2022-10-25T08:28:31.471Z,22.35
2022-10-25T08:31:01.244Z,22.87
2022-10-25T08:33:29.796Z,22.42
2022-10-25T08:36:00.535Z,22.17
2022-10-25T08:38:27.635Z,22.10
2022-10-25T08:41:00.555Z,21.16
2022-10-25T08:43:29.378Z,21.98
2022-10-25T08:46:01.306Z,21.56
2022-10-25T08:48:37.068Z,24.48
2022-10-25T08:51:25.637Z,24.38
2022-10-25T08:53:56.932Z,21.00
2022-10-25T08:56:25.584Z,19.74
2022-10-25T08:58:58.291Z,20.41
2022-10-25T09:01:38.833Z,21.76
2022-10-25T09:04:05.763Z,20.79
2022-10-25T09:06:44.284Z,19.47
2022-10-25T09:09:33.087Z,19.62
2022-10-25T09:12:11.598Z,20.87
2022-10-25T09:15:08.671Z,21.52
2022-10-25T09:17:52.507Z,25.08
2022-10-25T09:20:21.204Z,22.66
2022-10-25T09:22:54.487Z,22.96
2022-10-25T09:25:42.725Z,22.00
2022-10-25T09:28:24.301Z,22.72
2022-10-25T09:30:53.352Z,23.28
2022-10-25T09:33:28.398Z,22.15
2022-10-25T09:35:58.786Z,20.06
2022-10-25T09:38:36.577Z,18.95
2022-10-25T09:41:10.999Z,20.23
2022-10-25T09:43:48.569Z,21.12
2022-10-25T09:46:22.986Z,21.02
2022-10-25T09:49:26.888Z,21.27
2022-10-25T09:52:03.715Z,21.05
2022-10-25T09:54:50.070Z,21.38
2022-10-25T09:57:16.855Z,19.66
2022-10-25T09:59:48.616Z,20.99
2022-10-25T10:02:21.806Z,20.72
2022-10-25T10:04:49.788Z,19.48
2022-10-25T10:07:30.981Z,19.32
2022-10-25T10:10:01.889Z,21.89
2022-10-25T10:12:43.507Z,20.50
2022-10-25T10:15:23.842Z,21.15
2022-10-25T10:18:22.725Z,20.29
2022-10-25T10:21:16.104Z,20.86
2022-10-25T10:23:45.759Z,18.57
2022-10-25T10:26:37.484Z,20.86
2022-10-25T10:29:15.387Z,20.69
2022-10-25T10:31:50.221Z,23.86
2022-10-25T10:34:26.973Z,21.40
2022-10-25T10:37:02.703Z,20.29
2022-10-25T10:39:30.702Z,20.91
2022-10-25T10:42:04.066Z,19.34
2022-10-25T10:44:35.111Z,19.13
2022-10-25T10:47:20.158Z,19.57
2022-10-25T10:49:48.070Z,18.70
2022-10-25T10:52:27.736Z,19.83
2022-10-25T10:54:55.501Z,17.32
2022-10-25T10:57:32.487Z,17.81
2022-10-25T11:00:00.611Z,18.08
2022-10-25T11:02:40.405Z,18.56
2022-10-25T11:05:28.943Z,19.06
2022-10-25T11:07:58.641Z,16.25
2022-10-25T11:10:29.439Z,17.47
2022-10-25T11:13:10.941Z,18.20
2022-10-25T11:16:15.502Z,19.45
2022-10-25T11:18:51.361Z,18.25
2022-10-25T11:21:47.107Z,16.03
2022-10-25T11:24:44.796Z,16.48
2022-10-25T11:27:35.151Z,18.02
2022-10-25T11:30:23.819Z,16.43
2022-10-25T11:33:08.566Z,18.04
2022-10-25T11:35:48.477Z,17.08
2022-10-25T11:38:41.907Z,15.95
2022-10-25T11:41:31.417Z,16.06
2022-10-25T11:44:04.710Z,16.26
2022-10-25T11:47:00.645Z,16.98
2022-10-25T11:49:33.287Z,17.88
2022-10-25T11:52:27.552Z,16.29
2022-10-25T11:54:56.846Z,17.84
2022-10-25T11:57:49.842Z,17.44
2022-10-25T12:00:22.362Z,16.80
2022-10-25T12:03:06.461Z,17.34
2022-10-25T12:05:44.721Z,18.43
2022-10-25T12:09:16.618Z,20.84
2022-10-25T12:12:14.669Z,20.20
2022-10-25T12:14:47.277Z,18.36
2022-10-25T12:17:26.575Z,18.37
2022-10-25T12:19:56.208Z,20.30
2022-10-25T12:22:36.952Z,19.04
2022-10-25T12:25:28.123Z,20.72
2022-10-25T12:28:27.777Z,19.16
2022-10-25T12:31:00.739Z,17.79
2022-10-25T12:33:40.946Z,17.00
2022-10-25T12:36:16.272Z,19.54
2022-10-25T12:38:43.007Z,18.39
2022-10-25T12:41:29.458Z,17.10
2022-10-25T12:44:22.758Z,19.94
2022-10-25T12:47:01.569Z,18.85
2022-10-25T12:49:41.711Z,18.82
2022-10-25T12:52:54.723Z,16.96
2022-10-25T12:55:38.504Z,18.69
2022-10-25T12:58:23.618Z,19.32
2022-10-25T13:01:05.561Z,19.38
2022-10-25T13:03:51.548Z,17.83
2022-10-25T13:06:30.305Z,19.34
2022-10-25T13:09:05.623Z,19.64
2022-10-25T13:11:39.462Z,20.25
2022-10-25T13:14:18.964Z,20.62
2022-10-25T13:16:45.767Z,16.49
2022-10-25T13:19:42.658Z,19.22
2022-10-25T13:22:39.632Z,18.35
2022-10-25T13:25:12.874Z,17.67
2022-10-25T13:28:15.357Z,18.08
2022-10-25T13:30:43.074Z,19.26
2022-10-25T13:33:24.123Z,18.74
2022-10-25T13:35:51.895Z,18.36
2022-10-25T13:38:25.788Z,19.36
2022-10-25T13:41:17.346Z,19.49
2022-10-25T13:44:04.290Z,20.53
2022-10-25T13:46:36.058Z,19.76
2022-10-25T13:49:22.862Z,20.30
2022-10-25T13:51:49.730Z,17.12
2022-10-25T13:54:16.466Z,19.88
2022-10-25T13:56:52.967Z,18.88
2022-10-25T13:59:59.995Z,19.61
2022-10-25T14:02:26.847Z,19.54
2022-10-25T14:04:53.671Z,18.98
2022-10-25T14:07:43.527Z,18.71
2022-10-25T14:12:49.696Z,18.74
2022-10-25T14:15:30.128Z,18.98
2022-10-25T14:17:58.682Z,22.26
2022-10-25T14:20:31.409Z,20.89
2022-10-25T14:23:02.071Z,22.20
2022-10-25T14:25:28.786Z,22.02
2022-10-25T14:28:07.929Z,22.64
2022-10-25T14:30:40.398Z,22.51
2022-10-25T14:33:24.462Z,22.38
2022-10-25T14:35:56.569Z,22.46
2022-10-25T14:38:26.926Z,21.33
2022-10-25T14:40:59.760Z,22.36
2022-10-25T14:43:37.279Z,22.99
2022-10-25T14:46:08.454Z,22.10
2022-10-25T14:48:35.243Z,22.29
2022-10-25T14:51:19.587Z,21.31
2022-10-25T14:53:59.147Z,22.64
2022-10-25T14:56:46.133Z,21.78
2022-10-25T14:59:42.734Z,21.69
2022-10-25T15:02:24.604Z,22.17
2022-10-25T15:04:55.984Z,21.82
2022-10-25T15:07:25.090Z,20.96
2022-10-25T15:09:55.590Z,22.36
2022-10-25T15:12:27.231Z,21.75
2022-10-25T15:14:55.724Z,22.92
2022-10-25T15:17:25.481Z,21.80
2022-10-25T15:20:25.919Z,22.49
2022-10-25T15:23:05.322Z,24.32
2022-10-25T15:25:39.225Z,22.31
2022-10-25T15:28:11.449Z,22.05
2022-10-25T15:30:44.983Z,22.76
2022-10-25T15:33:39.190Z,22.47
2022-10-25T15:36:06.183Z,21.46
2022-10-25T15:39:01.639Z,22.64
2022-10-25T15:41:24.939Z,21.97
2022-10-25T15:43:54.067Z,21.17
2022-10-25T15:46:34.456Z,22.54
2022-10-25T15:49:04.912Z,24.53
2022-10-25T15:51:34.234Z,24.18
2022-10-25T15:54:00.969Z,23.55
2022-10-25T15:56:27.803Z,22.49
2022-10-25T15:58:55.092Z,21.73
2022-10-25T16:01:23.417Z,22.51
2022-10-25T16:03:50.475Z,23.34
2022-10-25T16:06:17.190Z,22.34
2022-10-25T16:08:43.882Z,23.11
2022-10-25T16:11:15.827Z,21.31
2022-10-25T16:13:44.719Z,21.03
2022-10-25T16:16:41.132Z,21.77
2022-10-25T16:19:19.418Z,21.99
2022-10-25T16:21:46.588Z,21.00
2022-10-25T16:24:14.251Z,21.93
2022-10-25T16:26:43.938Z,21.28
2022-10-25T16:29:23.567Z,22.30
2022-10-25T16:31:51.481Z,20.90
2022-10-25T16:34:19.742Z,22.03
2022-10-25T16:36:47.727Z,23.28
2022-10-25T16:39:15.047Z,22.69
2022-10-25T16:41:44.034Z,23.74
2022-10-25T16:44:16.415Z,21.54
2022-10-25T16:46:43.610Z,22.50
2022-10-25T16:49:10.416Z,22.79
2022-10-25T16:51:40.225Z,21.47
2022-10-25T16:54:08.973Z,20.86
2022-10-25T16:56:35.797Z,21.87
2022-10-25T16:59:03.488Z,22.78
2022-10-25T17:01:34.545Z,21.62
2022-10-25T17:04:04.355Z,20.89
2022-10-25T17:06:46.755Z,22.01
2022-10-25T17:09:13.537Z,21.98
2022-10-25T17:11:41.051Z,21.76
2022-10-25T17:14:10.053Z,21.09
2022-10-25T17:16:41.070Z,21.32
2022-10-25T17:19:10.838Z,20.75
2022-10-25T17:21:39.049Z,21.47
2022-10-25T17:24:06.738Z,21.32
2022-10-25T17:26:33.516Z,21.31
2022-10-25T17:29:01.093Z,21.77
2022-10-25T17:31:28.358Z,21.10
2022-10-25T17:33:56.946Z,20.95
2022-10-25T17:36:26.064Z,21.54
2022-10-25T17:38:54.586Z,21.26
2022-10-25T17:41:21.489Z,23.19
2022-10-25T17:43:49.214Z,25.67
2022-10-25T17:46:24.704Z,25.56
2022-10-25T17:49:01.920Z,24.42
2022-10-25T17:51:29.354Z,25.47
2022-10-25T17:53:57.804Z,22.11
2022-10-25T17:56:27.470Z,21.79
2022-10-25T17:58:57.747Z,22.49
2022-10-25T18:01:28.038Z,24.18
2022-10-25T18:03:55.966Z,23.32
2022-10-25T18:06:25.714Z,22.36
2022-10-25T18:08:57.957Z,23.02
2022-10-25T18:11:28.398Z,23.36
2022-10-25T18:13:58.489Z,22.67
2022-10-25T18:16:27.382Z,23.68
2022-10-25T18:18:58.119Z,23.15
2022-10-25T18:21:26.720Z,22.56
2022-10-25T18:23:58.022Z,22.27
2022-10-25T18:26:27.692Z,21.77
2022-10-25T18:28:57.259Z,23.85
2022-10-25T18:31:26.959Z,22.13
2022-10-25T18:33:56.286Z,23.38
2022-10-25T18:36:24.054Z,26.44
2022-10-25T18:38:51.806Z,26.50
2022-10-25T18:41:22.034Z,25.66
2022-10-25T18:43:50.106Z,24.87
2022-10-25T18:46:17.251Z,25.55
2022-10-25T18:48:45.304Z,22.27
2022-10-25T18:51:14.273Z,22.32
2022-10-25T18:53:41.513Z,22.61
2022-10-25T18:56:18.287Z,22.85
2022-10-25T18:58:48.069Z,22.62
2022-10-25T19:01:17.457Z,22.46
2022-10-25T19:03:44.520Z,23.41
2022-10-25T19:06:12.196Z,23.16
2022-10-25T19:08:41.482Z,22.63
2022-10-25T19:11:13.454Z,22.20
2022-10-25T19:13:41.694Z,21.01
2022-10-25T19:16:13.424Z,22.04
2022-10-25T19:18:41.867Z,23.24
2022-10-25T19:21:13.001Z,22.64
2022-10-25T19:23:43.670Z,22.10
2022-10-25T19:26:16.483Z,21.99
2022-10-25T19:28:43.515Z,21.66
2022-10-25T19:31:14.675Z,22.08
2022-10-25T19:33:46.371Z,20.98
2022-10-25T19:36:13.221Z,22.33
2022-10-25T19:38:41.557Z,23.15
2022-10-25T19:41:12.671Z,21.22
2022-10-25T19:43:40.948Z,21.30
2022-10-25T19:46:08.809Z,20.71
2022-10-25T19:48:37.207Z,20.81
2022-10-25T19:51:14.313Z,21.56
2022-10-25T19:53:42.691Z,21.76
2022-10-25T19:56:15.450Z,21.49
2022-10-25T19:58:42.888Z,22.01
2022-10-25T20:01:23.296Z,24.11
2022-10-25T20:03:52.587Z,22.11
2022-10-25T20:06:24.558Z,25.84
2022-10-25T20:08:53.451Z,22.06
2022-10-25T20:11:21.100Z,21.77
2022-10-25T20:13:47.882Z,22.19
2022-10-25T20:16:15.145Z,23.20
2022-10-25T20:18:43.300Z,25.97
2022-10-25T20:21:18.592Z,25.60
2022-10-25T20:23:50.126Z,23.58
2022-10-25T20:26:20.278Z,28.08
2022-10-25T20:28:48.059Z,24.74
2022-10-25T20:31:15.758Z,24.89
2022-10-25T20:33:43.302Z,26.22
2022-10-25T20:36:13.697Z,24.83
2022-10-25T20:38:42.942Z,26.73
2022-10-25T20:41:20.413Z,25.66
2022-10-25T20:43:49.687Z,27.95
2022-10-25T20:46:17.349Z,27.42
2022-10-25T20:48:45.303Z,25.71
2022-10-25T20:51:15.592Z,23.58
2022-10-25T20:53:44.420Z,24.06
2022-10-25T20:56:13.309Z,24.14
2022-10-25T20:58:41.451Z,25.46
2022-10-25T21:01:08.892Z,23.83
2022-10-25T21:03:36.042Z,24.49
2022-10-25T21:06:05.306Z,25.60
2022-10-25T21:08:33.392Z,24.51
2022-10-25T21:11:02.382Z,25.03
2022-10-25T21:13:34.232Z,25.33
2022-10-25T21:16:12.539Z,24.77
2022-10-25T21:18:39.506Z,23.44
2022-10-25T21:21:09.022Z,24.08
2022-10-25T21:23:35.973Z,22.66
2022-10-25T21:26:05.655Z,23.42
2022-10-25T21:28:34.940Z,24.27
2022-10-25T21:31:02.827Z,22.95
2022-10-25T21:33:29.659Z,22.74
2022-10-25T21:36:02.245Z,22.72
2022-10-25T21:38:32.180Z,22.63
2022-10-25T21:41:27.562Z,21.86
2022-10-25T21:43:55.290Z,23.54
2022-10-25T21:46:25.118Z,22.76
2022-10-25T21:48:51.970Z,23.88
2022-10-25T21:51:19.914Z,22.44
2022-10-25T21:53:47.273Z,22.17
2022-10-25T21:56:16.499Z,26.10
2022-10-25T21:58:45.051Z,24.93
2022-10-25T22:01:23.837Z,23.38
2022-10-25T22:03:51.878Z,22.75
2022-10-25T22:06:20.918Z,24.00
2022-10-25T22:08:48.230Z,27.96
2022-10-25T22:11:16.583Z,22.19
2022-10-25T22:13:44.263Z,24.10
2022-10-25T22:16:17.017Z,24.06
2022-10-25T22:18:49.507Z,24.09
2022-10-25T22:21:16.461Z,25.41
2022-10-25T22:23:43.471Z,26.35
2022-10-25T22:26:13.093Z,22.73
2022-10-25T22:28:41.273Z,25.91
2022-10-25T22:31:12.103Z,22.38
2022-10-25T22:33:39.515Z,23.73
2022-10-25T22:36:17.814Z,22.11
2022-10-25T22:38:45.543Z,21.43
2022-10-25T22:41:14.505Z,21.69
2022-10-25T22:43:43.630Z,22.53
2022-10-25T22:46:13.765Z,24.60
2022-10-25T22:48:42.193Z,23.76
2022-10-25T22:51:10.104Z,22.56
2022-10-25T22:53:37.747Z,22.36
2022-10-25T22:56:06.302Z,21.47
2022-10-25T22:58:34.546Z,22.58
2022-10-25T23:01:15.003Z,22.41
2022-10-25T23:03:44.933Z,23.68
2022-10-25T23:06:14.835Z,21.79
2022-10-25T23:08:42.506Z,26.09
2022-10-25T23:11:18.604Z,22.93
2022-10-25T23:13:45.841Z,23.24
2022-10-25T23:16:14.575Z,25.46
2022-10-25T23:18:42.572Z,25.49
2022-10-25T23:21:16.165Z,24.18
2022-10-25T23:23:44.942Z,25.04
2022-10-25T23:26:20.954Z,23.86
2022-10-25T23:28:48.236Z,23.37
2022-10-25T23:31:15.010Z,23.49
2022-10-25T23:33:43.899Z,22.91
2022-10-25T23:36:15.763Z,22.02
2022-10-25T23:38:44.277Z,22.76
2022-10-25T23:41:12.852Z,25.21
2022-10-25T23:43:40.614Z,27.06
2022-10-25T23:46:08.772Z,27.11
2022-10-25T23:48:35.878Z,25.51
2022-10-25T23:51:05.443Z,26.80
2022-10-25T23:53:32.949Z,24.03
2022-10-25T23:56:00.138Z,22.62
2022-10-25T23:58:27.929Z,22.69
